Groton, Vermont
Current Conditions -  °F | °C
As of 12:51 AM on Wednesday 28 Jan 2015 (Local Time) from KMPV Reporting Station
Light Snow Light Snow  
Wind Chill: -6°   Ceiling: 4700
Heat Index:   Visibility: 5mi
Dew Point: -1°   Wind: 7mph
Humidity: 73%   Direction: 340°NNW
Pressure: 29.83"   Gusts: NA
Location:  44.21°N, 72.2°W
Report Text: KMPV 280551Z AUTO 34006KT 5SM -SN SCT034 BKN047 OVC055 M14/M18 A2983 RMK AO2 SLP131 P0000 60003 T11441183 11144 21150 53004
Loading
Personal Weather Stations






























Interactive Weather Map New forecast layout! Learn more

10-Day Weather Forecast

Advertisements
Track Severe Weather on mobile